createdAt,value
2022-08-25T00:01:00.638Z,101568.81
2022-08-25T00:05:02.248Z,101569.69
2022-08-25T00:09:07.069Z,101562.41
2022-08-25T00:13:09.238Z,101562.41
2022-08-25T00:17:10.700Z,101563.22
2022-08-25T00:21:14.709Z,101559.25
2022-08-25T00:25:16.993Z,101559.34
2022-08-25T00:29:19.137Z,101544.72
2022-08-25T00:33:21.095Z,101541.88
2022-08-25T00:37:22.580Z,101538.66
2022-08-25T00:41:25.442Z,101544.78
2022-08-25T00:45:27.493Z,101550.47
2022-08-25T00:49:40.093Z,101544.41
2022-08-25T00:53:43.348Z,101546.44
2022-08-25T00:58:15.882Z,101548.94
2022-08-25T01:02:18.365Z,101548.47
2022-08-25T01:06:20.087Z,101553.72
2022-08-25T01:10:22.656Z,101554.50
2022-08-25T01:14:25.185Z,101557.75
2022-08-25T01:18:29.070Z,101559.28
2022-08-25T01:22:32.085Z,101548.84
2022-08-25T01:26:35.474Z,101547.75
2022-08-25T01:30:37.714Z,101554.56
2022-08-25T01:34:42.973Z,101549.34
2022-08-25T01:38:44.599Z,101552.97
2022-08-25T01:43:31.897Z,101557.75
2022-08-25T01:47:33.592Z,101547.81
2022-08-25T01:51:42.493Z,101548.97
2022-08-25T01:55:53.137Z,101538.53
2022-08-25T01:59:55.752Z,101545.34
2022-08-25T02:03:57.338Z,101539.31
2022-08-25T02:07:59.038Z,101535.66
2022-08-25T02:12:00.673Z,101536.91
2022-08-25T02:16:02.371Z,101531.66
2022-08-25T02:20:09.535Z,101527.63
2022-08-25T02:24:12.293Z,101526.41
2022-08-25T02:28:14.017Z,101520.75
2022-08-25T02:32:15.483Z,101522.38
2022-08-25T02:36:17.224Z,101516.75
2022-08-25T02:40:21.464Z,101503.94
2022-08-25T02:44:23.012Z,101505.53
2022-08-25T02:48:24.517Z,101508.34
2022-08-25T02:52:26.044Z,101509.19
2022-08-25T02:56:28.315Z,101518.81
2022-08-25T03:00:29.846Z,101500.31
2022-08-25T03:04:31.977Z,101506.34
2022-08-25T03:08:33.727Z,101500.72
2022-08-25T03:12:35.331Z,101497.53
2022-08-25T03:16:37.477Z,101499.16
2022-08-25T03:20:39.498Z,101499.94
2022-08-25T03:24:40.949Z,101499.16
2022-08-25T03:28:42.484Z,101494.34
2022-08-25T03:32:44.033Z,101490.75
2022-08-25T03:36:48.163Z,101493.56
2022-08-25T03:40:49.966Z,101480.72
2022-08-25T03:44:51.552Z,101496.78
2022-08-25T03:48:53.950Z,101485.94
2022-08-25T03:52:56.749Z,101485.94
2022-08-25T03:56:58.302Z,101483.53
2022-08-25T04:01:00.546Z,101485.13
2022-08-25T04:05:02.088Z,101494.75
2022-08-25T04:09:04.558Z,101485.94
2022-08-25T04:13:06.238Z,101496.00
2022-08-25T04:17:08.450Z,101507.22
2022-08-25T04:21:11.173Z,101491.97
2022-08-25T04:25:13.515Z,101506.44
2022-08-25T04:29:17.716Z,101517.69
2022-08-25T04:33:19.241Z,101515.66
2022-08-25T04:37:20.733Z,101510.44
2022-08-25T04:41:24.316Z,101511.25
2022-08-25T04:45:25.820Z,101511.66
2022-08-25T04:49:28.088Z,101516.06
2022-08-25T04:53:29.556Z,101508.03
2022-08-25T04:57:31.048Z,101501.59
2022-08-25T05:01:33.251Z,101508.41
2022-08-25T05:05:37.318Z,101507.19
2022-08-25T05:09:38.845Z,101515.63
2022-08-25T05:13:41.363Z,101510.78
2022-08-25T05:17:43.666Z,101508.72
2022-08-25T05:21:45.153Z,101507.16
2022-08-25T05:25:47.495Z,101518.44
2022-08-25T05:29:49.027Z,101512.34
2022-08-25T05:33:51.616Z,101519.53
2022-08-25T05:37:53.065Z,101517.53
2022-08-25T05:41:54.525Z,101522.34
2022-08-25T05:45:58.115Z,101530.78
2022-08-25T05:49:59.718Z,101529.22
2022-08-25T05:54:01.182Z,101522.31
2022-08-25T05:58:02.704Z,101523.56
2022-08-25T06:02:22.865Z,101521.13
2022-08-25T06:06:24.442Z,101524.69
2022-08-25T06:10:27.053Z,101531.16
2022-08-25T06:14:28.538Z,101528.75
2022-08-25T06:18:30.009Z,101536.75
2022-08-25T06:22:31.445Z,101518.72
2022-08-25T06:26:34.328Z,101527.56
2022-08-25T06:30:36.229Z,101532.78
2022-08-25T06:34:37.845Z,101544.06
2022-08-25T06:38:39.335Z,101536.00
2022-08-25T06:42:40.994Z,101542.41
2022-08-25T06:46:42.455Z,101539.66
2022-08-25T06:50:44.647Z,101545.25
2022-08-25T06:54:47.048Z,101550.47
2022-08-25T06:58:50.662Z,101547.19
2022-08-25T07:02:52.114Z,101559.25
2022-08-25T07:06:55.509Z,101549.19
2022-08-25T07:10:57.717Z,101541.88
2022-08-25T07:15:20.663Z,101538.22
2022-08-25T07:19:22.194Z,101531.31
2022-08-25T07:23:24.392Z,101538.97
2022-08-25T07:27:26.274Z,101538.13
2022-08-25T07:31:29.486Z,101539.25
2022-08-25T07:35:36.527Z,101531.75
2022-08-25T07:39:39.434Z,101531.53
2022-08-25T07:43:41.751Z,101518.63
2022-08-25T07:47:43.272Z,101527.81
2022-08-25T07:52:05.100Z,101525.41
2022-08-25T07:56:15.208Z,101529.78
2022-08-25T08:00:17.975Z,101529.56
2022-08-25T08:04:22.294Z,101516.47
2022-08-25T08:08:23.741Z,101522.91
2022-08-25T08:12:26.865Z,101523.44
2022-08-25T08:16:30.145Z,101521.56
2022-08-25T08:20:42.839Z,101523.88
2022-08-25T08:24:54.820Z,101526.13
2022-08-25T08:28:57.905Z,101523.69
2022-08-25T08:33:09.600Z,101512.22
2022-08-25T08:37:11.747Z,101511.75
2022-08-25T08:41:48.953Z,101515.25
2022-08-25T08:45:57.366Z,101502.56
2022-08-25T08:50:55.553Z,101499.53
2022-08-25T08:55:02.716Z,101498.66
2022-08-25T08:59:16.049Z,101505.72
2022-08-25T09:03:41.547Z,101502.06
2022-08-25T09:07:49.500Z,101500.78
2022-08-25T09:12:20.323Z,101508.09
2022-08-25T09:16:50.036Z,101490.22
2022-08-25T09:20:54.654Z,101485.78
2022-08-25T09:25:04.357Z,101481.16
2022-08-25T09:29:16.486Z,101477.38
2022-08-25T09:33:21.180Z,101480.88
2022-08-25T09:37:23.462Z,101470.97
2022-08-25T09:41:51.312Z,101469.38
2022-08-25T09:46:01.786Z,101467.78
2022-08-25T09:50:05.354Z,101473.06
2022-08-25T09:54:13.174Z,101470.78
2022-08-25T09:58:22.307Z,101469.81
2022-08-25T10:02:27.624Z,101463.84
2022-08-25T10:06:55.900Z,101468.13
2022-08-25T10:10:59.338Z,101456.47
2022-08-25T10:15:15.413Z,101450.78
2022-08-25T10:19:31.607Z,101442.13
2022-08-25T10:23:37.231Z,101444.78
2022-08-25T10:27:52.732Z,101443.50
2022-08-25T10:32:01.220Z,101448.06
2022-08-25T10:36:22.693Z,101443.63
2022-08-25T10:40:46.138Z,101432.13
2022-08-25T10:45:11.414Z,101431.25
2022-08-25T10:49:24.626Z,101416.78
2022-08-25T10:54:05.905Z,101411.34
2022-08-25T10:58:35.885Z,101408.03
2022-08-25T11:03:05.224Z,101396.50
2022-08-25T11:07:14.090Z,101396.19
2022-08-25T11:11:32.982Z,101402.59
2022-08-25T11:16:06.263Z,101395.19
2022-08-25T11:20:16.363Z,101396.09
2022-08-25T11:24:59.624Z,101392.75
2022-08-25T11:29:16.996Z,101398.53
2022-08-25T11:33:19.914Z,101381.34
2022-08-25T11:37:26.867Z,101380.69
2022-08-25T11:42:05.061Z,101378.31
2022-08-25T11:46:22.153Z,101375.97
2022-08-25T11:50:54.569Z,101372.91
2022-08-25T11:54:56.245Z,101367.81
2022-08-25T11:59:00.540Z,101354.38
2022-08-25T12:03:36.982Z,101355.47
2022-08-25T12:08:10.401Z,101348.50
2022-08-25T12:12:39.025Z,101335.50
2022-08-25T12:17:04.786Z,101333.78
2022-08-25T12:21:06.208Z,101334.44
2022-08-25T12:25:29.864Z,101333.78
2022-08-25T12:29:53.035Z,101322.88
2022-08-25T12:34:04.497Z,101320.72
2022-08-25T12:38:14.407Z,101309.50
2022-08-25T12:42:32.552Z,101309.19
2022-08-25T12:46:39.362Z,101306.81
2022-08-25T12:50:44.563Z,101297.00
2022-08-25T12:54:55.355Z,101298.38
2022-08-25T12:59:03.305Z,101299.47
2022-08-25T13:03:14.752Z,101306.00
2022-08-25T13:07:55.055Z,101287.44
2022-08-25T13:12:14.193Z,101293.25
2022-08-25T13:16:28.399Z,101285.44
2022-08-25T13:20:30.708Z,101279.81
2022-08-25T13:24:40.427Z,101274.25
2022-08-25T13:28:50.352Z,101269.50
2022-08-25T13:32:52.117Z,101272.97
2022-08-25T13:37:30.377Z,101271.78
2022-08-25T13:41:34.048Z,101265.28
2022-08-25T13:45:41.889Z,101264.22
2022-08-25T13:49:47.568Z,101253.81
2022-08-25T13:53:53.548Z,101259.38
2022-08-25T13:57:58.737Z,101251.66
2022-08-25T14:02:00.610Z,101250.25
2022-08-25T14:06:14.461Z,101257.22
2022-08-25T14:10:44.455Z,101247.00
2022-08-25T14:14:58.138Z,101242.44
2022-08-25T14:19:01.789Z,101235.31
2022-08-25T14:23:16.168Z,101229.09
2022-08-25T14:27:21.146Z,101216.75
2022-08-25T14:31:30.392Z,101226.72
2022-08-25T14:35:33.932Z,101215.75
2022-08-25T14:39:35.391Z,101210.03
2022-08-25T14:43:37.190Z,101207.03
2022-08-25T14:47:40.467Z,101206.44
2022-08-25T14:51:43.418Z,101196.31
2022-08-25T14:55:44.941Z,101191.38
2022-08-25T14:59:46.612Z,101186.06
2022-08-25T15:03:52.330Z,101178.56
2022-08-25T15:08:12.928Z,101178.00
2022-08-25T15:12:17.799Z,101184.78
2022-08-25T15:16:35.230Z,101175.59
2022-08-25T15:20:36.948Z,101173.50
2022-08-25T15:24:39.092Z,101170.06
2022-08-25T15:28:48.382Z,101160.72
2022-08-25T15:32:50.626Z,101169.97
2022-08-25T15:36:52.426Z,101170.66
2022-08-25T15:40:53.872Z,101161.31
2022-08-25T15:44:56.051Z,101152.09
2022-08-25T15:48:59.485Z,101158.09
2022-08-25T15:53:00.953Z,101142.66
2022-08-25T15:57:02.499Z,101135.16
2022-08-25T16:01:04.806Z,101136.69
2022-08-25T16:05:11.559Z,101128.97
2022-08-25T16:09:15.058Z,101121.59
2022-08-25T16:13:16.650Z,101118.06
2022-08-25T16:17:20.161Z,101112.59
2022-08-25T16:21:29.131Z,101115.84
2022-08-25T16:25:31.512Z,101109.72
2022-08-25T16:29:36.849Z,101102.97
2022-08-25T16:33:39.661Z,101101.75
2022-08-25T16:37:41.300Z,101096.22
2022-08-25T16:41:44.333Z,101090.69
2022-08-25T16:45:46.241Z,101089.00
2022-08-25T16:49:48.256Z,101095.38
2022-08-25T16:54:08.253Z,101091.31
2022-08-25T16:58:13.542Z,101100.63
2022-08-25T17:02:15.190Z,101102.28
2022-08-25T17:06:16.742Z,101097.56
2022-08-25T17:10:18.372Z,101095.34
2022-08-25T17:14:19.974Z,101107.31
2022-08-25T17:18:21.562Z,101100.75
2022-08-25T17:22:25.440Z,101098.06
2022-08-25T17:26:30.252Z,101095.00
2022-08-25T17:30:33.551Z,101098.03
2022-08-25T17:34:36.565Z,101099.16
2022-08-25T17:38:40.452Z,101093.16
2022-08-25T17:42:42.733Z,101093.22
2022-08-25T17:46:47.118Z,101098.91
2022-08-25T17:50:49.408Z,101094.91
2022-08-25T17:54:52.586Z,101092.34
2022-08-25T17:58:55.663Z,101105.34
2022-08-25T18:02:57.820Z,101101.91
2022-08-25T18:06:59.302Z,101105.31
2022-08-25T18:11:01.568Z,101104.34
2022-08-25T18:15:05.684Z,101112.75
2022-08-25T18:19:09.655Z,101111.66
2022-08-25T18:23:12.962Z,101112.78
2022-08-25T18:27:14.499Z,101118.91
2022-08-25T18:31:16.444Z,101109.63
2022-08-25T18:35:21.816Z,101119.75
2022-08-25T18:39:46.858Z,101123.31
2022-08-25T18:43:48.427Z,101120.81
2022-08-25T18:47:56.408Z,101123.72
2022-08-25T18:52:01.370Z,101130.66
2022-08-25T18:56:03.255Z,101126.75
2022-08-25T19:00:06.326Z,101131.16
2022-08-25T19:04:08.212Z,101128.81
2022-08-25T19:08:12.340Z,101126.09
2022-08-25T19:12:22.288Z,101130.25
2022-08-25T19:16:38.192Z,101130.75
2022-08-25T19:20:42.016Z,101130.94
2022-08-25T19:24:44.487Z,101126.78
2022-08-25T19:28:48.852Z,101130.66
2022-08-25T19:32:52.412Z,101127.09
2022-08-25T19:36:54.703Z,101138.16
2022-08-25T19:40:58.399Z,101126.38
2022-08-25T19:45:10.172Z,101132.31
2022-08-25T19:49:18.728Z,101136.13
2022-08-25T19:53:20.560Z,101130.03
2022-08-25T19:57:28.194Z,101138.09
2022-08-25T20:01:47.149Z,101129.16
2022-08-25T20:05:51.203Z,101130.63
2022-08-25T20:09:53.989Z,101131.13
2022-08-25T20:13:59.311Z,101130.63
2022-08-25T20:18:04.769Z,101125.50
2022-08-25T20:22:06.924Z,101129.03
2022-08-25T20:26:12.682Z,101129.53
2022-08-25T20:30:20.611Z,101132.38
2022-08-25T20:34:22.152Z,101136.88
2022-08-25T20:38:24.040Z,101128.97
2022-08-25T20:42:25.620Z,101126.19
2022-08-25T20:46:28.181Z,101121.94
2022-08-25T20:50:30.011Z,101123.56
2022-08-25T20:54:31.532Z,101122.34
2022-08-25T20:58:36.866Z,101115.19
2022-08-25T21:02:38.486Z,101120.16
2022-08-25T21:06:40.884Z,101113.75
2022-08-25T21:10:42.365Z,101098.22
2022-08-25T21:14:44.313Z,101108.38
2022-08-25T21:18:48.159Z,101108.69
2022-08-25T21:22:51.166Z,101109.00
2022-08-25T21:26:57.070Z,101101.72
2022-08-25T21:30:58.579Z,101099.00
2022-08-25T21:35:00.166Z,101099.38
2022-08-25T21:39:01.763Z,101098.94
2022-08-25T21:43:03.899Z,101094.97
2022-08-25T21:47:05.649Z,101096.84
2022-08-25T21:51:15.839Z,101093.00
2022-08-25T21:55:17.285Z,101086.69
2022-08-25T21:59:22.211Z,101090.31
2022-08-25T22:03:23.759Z,101093.63
2022-08-25T22:07:25.631Z,101095.16
2022-08-25T22:11:28.173Z,101089.84
2022-08-25T22:15:31.850Z,101079.16
2022-08-25T22:19:33.306Z,101080.06
2022-08-25T22:23:44.233Z,101072.63
2022-08-25T22:27:46.233Z,101069.88
2022-08-25T22:31:51.088Z,101070.94
2022-08-25T22:36:00.002Z,101058.78
2022-08-25T22:40:03.953Z,101062.94
2022-08-25T22:44:05.951Z,101061.34
2022-08-25T22:48:07.602Z,101053.72
2022-08-25T22:52:09.344Z,101062.91
2022-08-25T22:56:17.412Z,101053.56
2022-08-25T23:00:19.458Z,101064.31
2022-08-25T23:04:21.322Z,101050.84
2022-08-25T23:08:38.962Z,101048.72
2022-08-25T23:12:42.676Z,101051.13
2022-08-25T23:16:45.921Z,101051.13
2022-08-25T23:21:06.146Z,101039.38
2022-08-25T23:25:07.950Z,101037.44
2022-08-25T23:29:18.275Z,101034.00
2022-08-25T23:33:21.463Z,101032.94
2022-08-25T23:37:22.974Z,101032.81
2022-08-25T23:41:25.686Z,101027.06
2022-08-25T23:45:27.212Z,101017.13
2022-08-25T23:49:28.792Z,101019.53
2022-08-25T23:53:31.653Z,101017.72
2022-08-25T23:57:33.412Z,101019.03
